Time;durP1;ratioP1;P1;durP2;ratioP2;P2;SDS_P1;SDS_P2;PMS_P1;PMS_P2;Temp;Humidity;BMP_temperature;BMP_pressure;BME280_temperature;BME280_humidity;BME280_pressure;Samples;Min_cycle;Max_cycle;Signal;HPM_P1;HPM_P2
2021/06/27 00:00:29;;;;;;;;;;;;;;;16.69;76.01;96251.19;5095029;28;19942;-68
2021/06/27 00:02:57;;;;;;;;;;;;;;;16.53;77.28;96237.97;5093676;28;20019;-68
2021/06/27 00:05:25;;;;;;;;;;;;;;;16.47;77.87;96241.72;5093550;28;19924;-68
2021/06/27 00:07:51;;;;;;;;;;;;;;;16.35;77.85;96249.19;5092759;28;19920;-67
2021/06/27 00:10:18;;;;;;;;;;;;;;;16.24;78.67;96252.94;5093500;28;19923;-67
2021/06/27 00:12:44;;;;;;;;;;;;;;;16.45;77.36;96243.84;5094031;28;20019;-67
2021/06/27 00:15:12;;;;;;;;;;;;;;;16.28;77.22;96243.38;5093856;28;19956;-68
2021/06/27 00:17:40;;;;;;;;;;;;;;;16.30;77.06;96241.25;5094696;28;20011;-68
2021/06/27 00:20:08;;;;;;;;;;;;;;;16.32;76.52;96243.66;5093812;28;20054;-67
2021/06/27 00:22:35;;;;;;;;;;;;;;;16.28;77.41;96246.81;5093654;28;20022;-67
2021/06/27 00:25:00;;;;;;;;;;;;;;;16.28;78.59;96249.47;5093767;28;19920;-67
2021/06/27 00:27:25;;;;;;;;;;;;;;;16.23;79.11;96248.69;5093635;28;20411;-67
2021/06/27 00:29:51;;;;;;;;;;;;;;;16.22;78.92;96250.56;5093279;28;20022;-68
2021/06/27 00:32:16;;;;;;;;;;;;;;;16.17;79.09;96252.44;5093355;28;19974;-68
2021/06/27 00:34:42;;;;;;;;;;;;;;;16.19;79.30;96250.31;5092672;28;19999;-67
2021/06/27 00:37:08;;;;;;;;;;;;;;;16.10;79.71;96241.31;5093132;28;19942;-67
2021/06/27 00:39:35;;;;;;;;;;;;;;;16.13;79.63;96238.13;5093348;28;19989;-66
2021/06/27 00:42:03;;;;;;;;;;;;;;;16.17;79.12;96242.63;5093280;28;19920;-69
2021/06/27 00:44:31;;;;;;;;;;;;;;;16.12;78.37;96242.63;5074810;28;19920;-66
2021/06/27 00:46:59;;;;;;;;;;;;;;;16.15;79.48;96241.31;5092946;28;19920;-67
2021/06/27 00:49:24;;;;;;;;;;;;;;;15.99;79.94;96238.69;5093050;28;20051;-67
2021/06/27 00:51:50;;;;;;;;;;;;;;;15.93;80.07;96237.13;5101829;28;19912;-67
2021/06/27 00:54:15;;;;;;;;;;;;;;;15.91;80.48;96249.84;5093161;28;19927;-66
2021/06/27 00:56:49;;;;;;;;;;;;;;;16.00;79.12;96242.94;5092271;28;19938;-67
2021/06/27 00:59:17;;;;;;;;;;;;;;;15.98;79.48;96255.69;5092172;28;19962;-66
2021/06/27 01:01:42;;;;;;;;;;;;;;;15.89;80.78;96257.28;5092657;28;19920;-67
2021/06/27 01:04:11;;;;;;;;;;;;;;;15.91;80.76;96254.34;5092733;28;19931;-66
2021/06/27 01:06:39;;;;;;;;;;;;;;;15.98;79.06;96254.84;5092480;28;19927;-67
2021/06/27 01:09:05;;;;;;;;;;;;;;;16.13;78.02;96256.69;5091900;28;20242;-67
2021/06/27 01:11:31;;;;;;;;;;;;;;;16.13;77.95;96251.38;5092072;28;20014;-67
2021/06/27 01:13:59;;;;;;;;;;;;;;;16.16;77.48;96259.59;5074278;28;20051;-67
2021/06/27 01:16:24;;;;;;;;;;;;;;;15.99;78.45;96253.81;5092121;28;19927;-66
2021/06/27 01:18:51;;;;;;;;;;;;;;;15.94;78.79;96254.63;5091351;28;19920;-67
2021/06/27 01:21:18;;;;;;;;;;;;;;;15.84;79.11;96254.63;5092718;28;20333;-66
2021/06/27 01:23:43;;;;;;;;;;;;;;;15.85;79.18;96266.03;5092185;28;19924;-67
2021/06/27 01:26:09;;;;;;;;;;;;;;;15.85;79.37;96272.13;5091647;28;19973;-67
2021/06/27 01:28:34;;;;;;;;;;;;;;;15.72;80.23;96260.22;5091915;28;20014;-66
2021/06/27 01:31:00;;;;;;;;;;;;;;;15.70;80.29;96270.28;5091832;28;20277;-67
2021/06/27 01:33:26;;;;;;;;;;;;;;;15.68;79.89;96263.66;5091785;28;20252;-67
2021/06/27 01:35:51;;;;;;;;;;;;;;;15.75;79.50;96272.13;5112266;22;19920;-69
2021/06/27 01:38:21;;;;;;;;;;;;;;;15.78;79.10;96263.66;5092874;28;20395;-69
2021/06/27 01:40:47;;;;;;;;;;;;;;;15.73;79.34;96268.97;5092675;28;19926;-69
2021/06/27 01:43:14;;;;;;;;;;;;;;;15.73;78.84;96263.66;5074595;28;20007;-69
2021/06/27 01:45:42;;;;;;;;;;;;;;;15.71;79.25;96266.59;5092635;28;20018;-70
2021/06/27 01:48:09;;;;;;;;;;;;;;;15.77;78.36;96270.03;5092679;28;20395;-69
2021/06/27 01:50:35;;;;;;;;;;;;;;;15.86;77.34;96257.81;5092407;28;20347;-69
2021/06/27 01:53:03;;;;;;;;;;;;;;;15.85;77.09;96256.22;5092813;28;19955;-70
2021/06/27 01:55:30;;;;;;;;;;;;;;;15.88;76.78;96249.59;5092777;28;19920;-69
2021/06/27 01:57:58;;;;;;;;;;;;;;;15.88;77.46;96247.75;5092638;28;20402;-69
2021/06/27 02:00:26;;;;;;;;;;;;;;;15.80;77.79;96250.91;5073982;28;19973;-70
2021/06/27 02:02:54;;;;;;;;;;;;;;;15.57;80.37;96246.94;5073994;28;19927;-69
2021/06/27 02:05:19;;;;;;;;;;;;;;;15.62;79.25;96251.44;5091491;28;19920;-69
2021/06/27 02:07:47;;;;;;;;;;;;;;;15.56;79.51;96257.81;5091058;28;19926;-69
2021/06/27 02:10:18;;;;;;;;;;;;;;;15.51;80.43;96255.16;5092506;28;19927;-69
2021/06/27 02:12:44;;;;;;;;;;;;;;;15.59;79.09;96257.28;5092307;28;19926;-69
2021/06/27 02:15:11;;;;;;;;;;;;;;;15.55;79.74;96259.69;5091897;28;19920;-69
2021/06/27 02:17:37;;;;;;;;;;;;;;;15.45;79.89;96257.81;5091877;28;19926;-69
2021/06/27 02:20:03;;;;;;;;;;;;;;;15.32;81.30;96255.69;5091572;28;19920;-69
2021/06/27 02:22:28;;;;;;;;;;;;;;;15.25;81.68;96251.72;5092000;28;20071;-70
2021/06/27 02:24:54;;;;;;;;;;;;;;;15.35;80.81;96257.03;5091920;28;19974;-69
2021/06/27 02:27:22;;;;;;;;;;;;;;;15.32;80.38;96258.31;5092299;28;19920;-70
2021/06/27 02:29:49;;;;;;;;;;;;;;;15.20;80.71;96253.28;5091452;28;19927;-69
2021/06/27 02:32:16;;;;;;;;;;;;;;;15.11;81.39;96246.13;5092045;28;19928;-69
2021/06/27 02:34:42;;;;;;;;;;;;;;;15.06;81.60;96251.41;5073508;28;19920;-69
2021/06/27 02:37:07;;;;;;;;;;;;;;;15.12;81.04;96243.22;5092102;28;20298;-69
2021/06/27 02:39:33;;;;;;;;;;;;;;;15.21;80.75;96251.44;5091885;28;19973;-69
2021/06/27 02:41:58;;;;;;;;;;;;;;;15.16;80.88;96244.25;5091966;28;19928;-69
2021/06/27 02:44:23;;;;;;;;;;;;;;;15.26;80.25;96243.50;5091960;28;19932;-69
2021/06/27 02:46:50;;;;;;;;;;;;;;;15.29;79.78;96235.03;5077691;28;20390;-69
2021/06/27 02:49:16;;;;;;;;;;;;;;;15.11;80.73;96235.53;5087617;28;19955;-69
2021/06/27 02:51:41;;;;;;;;;;;;;;;15.01;81.06;96230.19;5105389;28;19931;-69
2021/06/27 02:54:06;;;;;;;;;;;;;;;14.92;81.41;96225.44;5092397;28;20345;-69
2021/06/27 02:56:32;;;;;;;;;;;;;;;14.91;81.21;96221.19;5091919;28;19920;-69
2021/06/27 02:58:57;;;;;;;;;;;;;;;14.90;81.47;96214.28;5092588;28;19924;-69
2021/06/27 03:01:23;;;;;;;;;;;;;;;14.95;81.34;96216.16;5074271;28;19920;-69
2021/06/27 03:03:51;;;;;;;;;;;;;;;15.00;81.76;96220.66;5073831;28;19931;-69
2021/06/27 03:06:16;;;;;;;;;;;;;;;14.90;82.45;96214.28;5073545;28;20015;-68
2021/06/27 03:08:44;;;;;;;;;;;;;;;14.83;82.72;96216.41;5091801;28;20007;-69
2021/06/27 03:11:11;;;;;;;;;;;;;;;14.80;83.01;96222.25;5091906;28;19939;-68
2021/06/27 03:13:39;;;;;;;;;;;;;;;14.79;83.42;96220.63;5073834;28;19920;-69
2021/06/27 03:16:05;;;;;;;;;;;;;;;14.75;83.55;96211.63;5091539;28;19942;-69
2021/06/27 03:18:33;;;;;;;;;;;;;;;14.76;83.58;96210.59;5092113;28;19920;-69
2021/06/27 03:21:03;;;;;;;;;;;;;;;14.78;83.06;96219.03;5091606;28;19924;-69
2021/06/27 03:23:28;;;;;;;;;;;;;;;14.85;82.97;96218.78;5091885;28;19955;-68
2021/06/27 03:25:54;;;;;;;;;;;;;;;14.87;83.17;96214.03;5091589;28;19986;-69
2021/06/27 03:28:20;;;;;;;;;;;;;;;14.88;82.98;96215.63;5073319;28;19966;-69
2021/06/27 03:30:46;;;;;;;;;;;;;;;14.91;82.26;96215.91;5073209;28;19920;-69
2021/06/27 03:33:11;;;;;;;;;;;;;;;14.94;82.04;96212.72;5090966;28;19931;-70
2021/06/27 03:35:36;;;;;;;;;;;;;;;14.99;82.04;96211.94;5091426;28;19927;-69
2021/06/27 03:38:14;;;;;;;;;;;;;;;15.16;81.61;96206.38;5073476;28;19920;-69
2021/06/27 03:40:43;;;;;;;;;;;;;;;15.25;80.68;96218.06;5073357;28;19924;-70
2021/06/27 03:43:08;;;;;;;;;;;;;;;15.33;80.47;96211.41;5076065;28;20170;-69
2021/06/27 03:45:34;;;;;;;;;;;;;;;15.33;79.90;96206.91;5095000;28;20028;-68
2021/06/27 03:47:59;;;;;;;;;;;;;;;15.33;79.90;96211.41;5095334;28;19928;-70
2021/06/27 03:50:27;;;;;;;;;;;;;;;15.46;79.80;96202.94;5094918;28;19920;-70
2021/06/27 03:52:52;;;;;;;;;;;;;;;15.48;79.39;96200.81;5104248;28;19920;-69
2021/06/27 03:55:19;;;;;;;;;;;;;;;15.55;79.48;96209.31;5077496;28;20349;-70
2021/06/27 03:57:45;;;;;;;;;;;;;;;15.61;79.28;96210.88;5095825;28;19920;-70
2021/06/27 04:00:10;;;;;;;;;;;;;;;15.61;79.09;96194.19;5094740;28;19965;-70
2021/06/27 04:02:36;;;;;;;;;;;;;;;15.65;79.26;96189.94;5094842;28;19946;-71
2021/06/27 04:05:03;;;;;;;;;;;;;;;15.75;78.95;96185.41;5076655;28;19927;-69
2021/06/27 04:07:29;;;;;;;;;;;;;;;15.81;78.75;96180.88;5094778;28;20443;-70
2021/06/27 04:09:54;;;;;;;;;;;;;;;15.85;78.77;96189.91;5094652;28;19923;-70
2021/06/27 04:12:21;;;;;;;;;;;;;;;15.99;78.46;96188.28;5076437;28;19966;-70
2021/06/27 04:14:46;;;;;;;;;;;;;;;16.04;78.08;96184.81;5094821;28;19920;-70
2021/06/27 04:17:16;;;;;;;;;;;;;;;16.05;78.44;96167.84;5094488;28;19920;-70
2021/06/27 04:19:42;;;;;;;;;;;;;;;16.19;77.65;96171.47;5094501;28;20387;-70
2021/06/27 04:22:07;;;;;;;;;;;;;;;16.14;78.03;96173.34;5076578;28;19946;-70
2021/06/27 04:24:33;;;;;;;;;;;;;;;16.24;77.62;96173.31;5094362;28;20014;-69
2021/06/27 04:27:00;;;;;;;;;;;;;;;16.20;77.81;96172.28;5094659;28;19927;-71
2021/06/27 04:29:27;;;;;;;;;;;;;;;16.18;77.66;96177.06;5094272;28;20015;-70
2021/06/27 04:31:55;;;;;;;;;;;;;;;16.21;77.56;96181.84;5076207;28;20013;-69
2021/06/27 04:34:20;;;;;;;;;;;;;;;16.34;77.71;96186.53;5094084;28;19920;-71
2021/06/27 04:36:48;;;;;;;;;;;;;;;16.25;77.70;96196.13;5094255;28;19973;-70
2021/06/27 04:39:15;;;;;;;;;;;;;;;16.51;77.11;96204.78;5093820;28;19920;-69
2021/06/27 04:41:44;;;;;;;;;;;;;;;16.79;75.67;96208.69;5076102;28;19920;-70
2021/06/27 04:44:12;;;;;;;;;;;;;;;16.81;75.58;96213.69;5094005;28;19924;-70
2021/06/27 04:46:39;;;;;;;;;;;;;;;16.80;76.05;96207.59;5093835;28;20367;-68
2021/06/27 04:49:06;;;;;;;;;;;;;;;16.83;75.54;96208.91;5093647;28;19920;-69
2021/06/27 04:51:32;;;;;;;;;;;;;;;16.79;76.11;96206.00;5093699;28;19920;-69
2021/06/27 04:53:57;;;;;;;;;;;;;;;16.86;75.96;96203.03;5093515;28;19927;-69
2021/06/27 04:56:23;;;;;;;;;;;;;;;16.94;75.94;96210.41;5093749;28;19927;-69
2021/06/27 04:58:48;;;;;;;;;;;;;;;17.00;75.43;96206.66;5093536;28;19973;-69
2021/06/27 05:01:14;;;;;;;;;;;;;;;17.19;75.01;96218.22;5093815;28;19920;-69
2021/06/27 05:03:40;;;;;;;;;;;;;;;17.37;73.15;96215.97;5093542;28;20060;-69
2021/06/27 05:06:06;;;;;;;;;;;;;;;17.22;74.22;96211.53;5093466;28;19920;-68
2021/06/27 05:08:31;;;;;;;;;;;;;;;17.44;74.31;96217.25;5093760;28;19920;-69
2021/06/27 05:10:58;;;;;;;;;;;;;;;17.73;73.31;96216.47;5093603;28;19926;-69
2021/06/27 05:13:23;;;;;;;;;;;;;;;17.65;72.26;96212.53;5079624;28;19955;-69
2021/06/27 05:15:49;;;;;;;;;;;;;;;17.57;73.97;96205.94;5077169;28;19924;-69
2021/06/27 05:18:16;;;;;;;;;;;;;;;17.61;73.93;96205.41;5072086;28;19924;-69
2021/06/27 05:20:43;;;;;;;;;;;;;;;17.67;73.41;96199.75;5076159;28;20019;-69
2021/06/27 05:23:08;;;;;;;;;;;;;;;17.67;73.67;96206.94;5080506;28;19920;-69
2021/06/27 05:25:34;;;;;;;;;;;;;;;17.72;73.13;96201.56;5074744;28;19946;-69
2021/06/27 05:28:00;;;;;;;;;;;;;;;17.66;74.04;96214.13;5072360;28;19958;-69
2021/06/27 05:30:25;;;;;;;;;;;;;;;17.67;74.07;96210.38;5073421;28;20469;-69
2021/06/27 05:32:53;;;;;;;;;;;;;;;17.75;73.63;96211.66;5072964;28;19959;-69
2021/06/27 05:35:19;;;;;;;;;;;;;;;17.78;73.60;96205.78;5072501;28;19960;-69
2021/06/27 05:37:46;;;;;;;;;;;;;;;17.61;73.64;96210.72;5091444;28;19927;-70
2021/06/27 05:40:11;;;;;;;;;;;;;;;17.82;73.46;96212.13;5092742;28;19974;-69
2021/06/27 05:42:37;;;;;;;;;;;;;;;17.68;73.57;96211.16;5092892;28;19920;-69
2021/06/27 05:45:02;;;;;;;;;;;;;;;17.88;73.73;96208.34;5074621;28;19942;-69
2021/06/27 05:47:30;;;;;;;;;;;;;;;17.90;74.00;96208.06;5092623;28;20018;-69
2021/06/27 05:49:55;;;;;;;;;;;;;;;17.78;73.51;96203.91;5093150;28;19931;-69
2021/06/27 05:52:21;;;;;;;;;;;;;;;17.87;73.82;96204.09;5074613;28;19923;-69
2021/06/27 05:54:48;;;;;;;;;;;;;;;17.92;72.94;96193.41;5092669;28;19920;-69
2021/06/27 05:57:13;;;;;;;;;;;;;;;17.96;73.58;96191.75;5074615;28;19955;-69
2021/06/27 05:59:38;;;;;;;;;;;;;;;18.17;73.03;96194.19;5092544;28;19966;-69
2021/06/27 06:02:04;;;;;;;;;;;;;;;18.30;72.53;96183.66;5092770;28;19927;-69
2021/06/27 06:04:29;;;;;;;;;;;;;;;18.29;72.41;96183.91;5092198;28;20364;-69
2021/06/27 06:06:55;;;;;;;;;;;;;;;18.24;72.79;96187.47;5092509;28;20370;-70
2021/06/27 06:09:20;;;;;;;;;;;;;;;18.33;72.16;96184.94;5092226;28;19927;-69
2021/06/27 06:11:49;;;;;;;;;;;;;;;18.30;72.02;96180.19;5092561;28;20429;-69
2021/06/27 06:14:15;;;;;;;;;;;;;;;18.43;72.37;96179.50;5092441;28;19959;-69
2021/06/27 06:16:45;;;;;;;;;;;;;;;18.60;71.46;96190.44;5093115;28;19970;-69
2021/06/27 06:19:10;;;;;;;;;;;;;;;18.86;70.10;96195.47;5094190;28;19924;-70
2021/06/27 06:21:38;;;;;;;;;;;;;;;19.20;68.76;96189.09;5093916;28;19920;-69
2021/06/27 06:24:04;;;;;;;;;;;;;;;19.29;68.90;96190.81;5092354;28;20379;-70
2021/06/27 06:26:30;;;;;;;;;;;;;;;19.10;68.62;96188.19;5092404;28;19930;-69
2021/06/27 06:28:56;;;;;;;;;;;;;;;19.29;68.47;96195.34;5074039;28;19926;-70
2021/06/27 06:31:22;;;;;;;;;;;;;;;19.50;68.53;96196.59;5092286;28;19927;-70
2021/06/27 06:33:47;;;;;;;;;;;;;;;19.77;67.85;96185.22;5092402;28;19924;-70
2021/06/27 06:36:12;;;;;;;;;;;;;;;19.95;66.77;96186.22;5092245;28;20379;-70
2021/06/27 06:38:38;;;;;;;;;;;;;;;19.98;67.01;96192.84;5092685;28;19920;-70
2021/06/27 06:41:06;;;;;;;;;;;;;;;20.22;66.58;96195.31;5092088;28;20285;-70
2021/06/27 06:43:31;;;;;;;;;;;;;;;20.45;65.41;96184.44;5092277;28;20337;-69
2021/06/27 06:45:58;;;;;;;;;;;;;;;20.48;64.51;96198.31;5092815;28;19924;-68
2021/06/27 06:48:26;;;;;;;;;;;;;;;21.05;63.29;96187.97;5092105;28;19927;-69
2021/06/27 06:50:52;;;;;;;;;;;;;;;21.05;62.06;96185.31;5091586;28;19920;-70
2021/06/27 06:53:17;;;;;;;;;;;;;;;21.27;62.27;96192.56;5091944;28;20002;-71
2021/06/27 06:55:42;;;;;;;;;;;;;;;21.72;60.65;96188.75;5092014;28;19920;-70
2021/06/27 06:58:08;;;;;;;;;;;;;;;22.44;59.07;96195.69;5092270;28;19979;-69
2021/06/27 07:00:33;;;;;;;;;;;;;;;22.47;58.23;96186.22;5091698;28;19981;-70
2021/06/27 07:03:00;;;;;;;;;;;;;;;22.59;57.25;96186.41;5091942;28;20387;-70
2021/06/27 07:05:26;;;;;;;;;;;;;;;23.15;55.68;96183.97;5091965;28;20386;-69
2021/06/27 07:07:53;;;;;;;;;;;;;;;23.27;55.26;96184.88;5074368;28;20014;-70
2021/06/27 07:10:19;;;;;;;;;;;;;;;23.29;54.73;96184.56;5091884;28;19958;-68
2021/06/27 07:12:45;;;;;;;;;;;;;;;23.68;54.53;96186.28;5073640;28;19951;-70
2021/06/27 07:15:11;;;;;;;;;;;;;;;23.61;52.19;96177.88;5091630;28;19930;-71
2021/06/27 07:17:37;;;;;;;;;;;;;;;23.67;51.51;96187.34;5095026;28;19965;-70
2021/06/27 07:20:07;;;;;;;;;;;;;;;23.85;52.16;96184.63;5095529;28;19967;-70
2021/06/27 07:22:33;;;;;;;;;;;;;;;23.75;52.65;96191.16;5095617;28;19919;-69
2021/06/27 07:25:01;;;;;;;;;;;;;;;23.98;52.19;96186.31;5095549;28;19965;-69
2021/06/27 07:27:26;;;;;;;;;;;;;;;23.99;51.93;96185.19;5095526;28;19927;-69
2021/06/27 07:29:52;;;;;;;;;;;;;;;24.58;50.89;96177.19;5078319;28;19920;-70
2021/06/27 07:32:17;;;;;;;;;;;;;;;24.67;50.13;96179.84;5077337;28;19926;-70
2021/06/27 07:34:42;;;;;;;;;;;;;;;24.28;50.96;96187.94;5111117;22;19998;-67
2021/06/27 07:37:09;;;;;;;;;;;;;;;24.91;49.96;96181.88;5074375;28;20323;-68
2021/06/27 07:39:37;;;;;;;;;;;;;;;25.18;49.13;96185.94;5073791;28;19924;-67
2021/06/27 07:42:03;;;;;;;;;;;;;;;25.04;48.76;96175.44;5056477;28;19928;-67
2021/06/27 07:44:28;;;;;;;;;;;;;;;25.49;48.40;96180.13;5074591;28;20019;-67
2021/06/27 07:46:54;;;;;;;;;;;;;;;25.52;48.22;96182.94;5074855;28;20368;-68
2021/06/27 07:49:20;;;;;;;;;;;;;;;25.34;48.75;96179.63;5074255;28;19951;-67
2021/06/27 07:51:48;;;;;;;;;;;;;;;25.88;47.33;96173.38;5074397;28;20019;-68
2021/06/27 07:54:17;;;;;;;;;;;;;;;26.28;47.10;96176.22;5074291;28;19920;-68
2021/06/27 07:56:42;;;;;;;;;;;;;;;26.66;45.79;96167.00;5056544;28;19920;-67
2021/06/27 07:59:13;;;;;;;;;;;;;;;26.65;44.85;96166.22;5074415;28;19921;-67
2021/06/27 08:01:38;;;;;;;;;;;;;;;26.20;45.36;96171.72;5074447;28;19960;-67
2021/06/27 08:04:04;;;;;;;;;;;;;;;25.56;46.57;96167.72;5075879;28;20007;-68
2021/06/27 08:06:29;;;;;;;;;;;;;;;25.96;45.88;96177.13;5075072;28;19927;-67
2021/06/27 08:08:57;;;;;;;;;;;;;;;27.05;44.20;96184.34;5056434;28;19928;-68
2021/06/27 08:11:26;;;;;;;;;;;;;;;26.77;42.32;96180.81;5056375;28;19920;-67
2021/06/27 08:13:51;;;;;;;;;;;;;;;26.89;44.15;96183.47;5056292;28;19967;-68
2021/06/27 08:16:16;;;;;;;;;;;;;;;26.94;43.65;96181.34;5055971;28;19959;-68
2021/06/27 08:18:42;;;;;;;;;;;;;;;26.86;42.17;96166.06;5074058;28;19951;-67
2021/06/27 08:21:07;;;;;;;;;;;;;;;27.10;42.68;96165.22;5074447;28;19927;-68
2021/06/27 08:23:33;;;;;;;;;;;;;;;26.24;44.49;96169.94;5074322;28;20411;-67
2021/06/27 08:25:58;;;;;;;;;;;;;;;26.26;44.92;96165.00;5074254;28;19927;-67
2021/06/27 08:28:27;;;;;;;;;;;;;;;26.25;44.58;96160.72;5056188;28;19927;-68
2021/06/27 08:30:56;;;;;;;;;;;;;;;27.27;42.77;96163.38;5075267;28;19920;-67
2021/06/27 08:33:21;;;;;;;;;;;;;;;26.77;43.86;96173.50;5074362;28;19920;-67
2021/06/27 08:35:50;;;;;;;;;;;;;;;27.23;42.99;96166.00;5074194;28;19959;-68
2021/06/27 08:38:16;;;;;;;;;;;;;;;26.59;44.56;96166.81;5074131;28;19921;-67
2021/06/27 08:40:41;;;;;;;;;;;;;;;27.08;43.70;96161.31;5074472;28;20599;-68
2021/06/27 08:43:08;;;;;;;;;;;;;;;26.74;44.92;96171.47;5058444;28;19920;-67
2021/06/27 08:45:40;;;;;;;;;;;;;;;27.75;42.47;96162.34;5075068;28;19920;-67
2021/06/27 08:48:07;;;;;;;;;;;;;;;27.67;42.46;96160.59;5074326;28;19966;-68
2021/06/27 08:50:32;;;;;;;;;;;;;;;27.40;43.21;96162.97;5074724;28;19930;-68
2021/06/27 08:52:58;;;;;;;;;;;;;;;27.62;42.83;96163.53;5075028;28;20015;-68
2021/06/27 08:55:23;;;;;;;;;;;;;;;27.93;41.86;96166.31;5074275;28;19920;-67
2021/06/27 08:57:49;;;;;;;;;;;;;;;27.20;42.87;96159.34;5074175;28;19920;-68
2021/06/27 09:00:15;;;;;;;;;;;;;;;28.09;41.70;96160.09;5055746;28;19932;-67
2021/06/27 09:02:42;;;;;;;;;;;;;;;27.46;42.49;96166.22;5055750;28;19920;-67
2021/06/27 09:05:11;;;;;;;;;;;;;;;27.98;41.36;96157.94;5075131;28;19920;-67
2021/06/27 09:07:38;;;;;;;;;;;;;;;28.37;40.70;96163.50;5076586;28;20058;-67
2021/06/27 09:10:04;;;;;;;;;;;;;;;28.80;39.96;96161.75;5075798;28;19920;-68
2021/06/27 09:12:45;;;;;;;;;;;;;;;29.91;37.74;96159.25;5074207;28;20019;-67
2021/06/27 09:15:11;;;;;;;;;;;;;;;28.63;39.27;96164.81;5070418;28;19931;-68
2021/06/27 09:17:39;;;;;;;;;;;;;;;28.26;39.72;96170.56;5074532;28;19920;-68
2021/06/27 09:20:09;;;;;;;;;;;;;;;27.62;40.93;96171.66;5074316;28;19951;-68
2021/06/27 09:22:35;;;;;;;;;;;;;;;27.64;41.58;96169.38;5074221;28;19921;-67
2021/06/27 09:25:20;;;;;;;;;;;;;;;28.90;39.55;96165.81;5055265;28;19981;-67
2021/06/27 09:27:49;;;;;;;;;;;;;;;28.27;39.19;96166.72;5073621;28;20391;-66
2021/06/27 09:30:16;;;;;;;;;;;;;;;29.13;38.46;96164.00;5073551;28;19927;-68
2021/06/27 09:32:52;;;;;;;;;;;;;;;28.96;38.34;96176.03;5073815;28;20319;-68
2021/06/27 09:35:32;;;;;;;;;;;;;;;29.05;36.80;96158.78;5055319;28;19963;-67
2021/06/27 09:38:15;;;;;;;;;;;;;;;28.03;39.07;96161.47;5073337;28;20022;-68
2021/06/27 09:40:43;;;;;;;;;;;;;;;28.36;37.99;96164.66;5071889;28;19920;-67
2021/06/27 09:43:09;;;;;;;;;;;;;;;27.07;40.58;96165.13;5073108;28;19921;-67
2021/06/27 09:45:43;;;;;;;;;;;;;;;27.04;41.40;96160.38;5072722;28;20222;-68
2021/06/27 09:48:09;;;;;;;;;;;;;;;26.76;41.83;96150.34;5054589;28;20036;-67
2021/06/27 09:50:34;;;;;;;;;;;;;;;26.35;43.28;96146.78;5054539;28;20124;-68
2021/06/27 09:53:01;;;;;;;;;;;;;;;26.48;43.12;96141.44;5072993;28;19970;-68
2021/06/27 09:55:27;;;;;;;;;;;;;;;26.18;43.85;96141.63;5072663;28;19920;-68
2021/06/27 09:58:11;;;;;;;;;;;;;;;26.22;44.63;96142.53;5073176;28;19928;-67
2021/06/27 10:00:40;;;;;;;;;;;;;;;25.47;44.91;96147.38;5072935;28;19920;-68
2021/06/27 10:03:07;;;;;;;;;;;;;;;25.15;45.15;96138.97;5054710;28;19920;-68
2021/06/27 10:05:33;;;;;;;;;;;;;;;25.61;44.71;96142.44;5072946;28;19996;-67
2021/06/27 10:08:01;;;;;;;;;;;;;;;25.72;44.83;96130.09;5054398;28;20019;-67
2021/06/27 10:10:28;;;;;;;;;;;;;;;25.20;44.94;96136.06;5072140;28;19928;-67
2021/06/27 10:12:53;;;;;;;;;;;;;;;25.52;44.88;96120.22;5072400;28;19974;-68
2021/06/27 10:15:19;;;;;;;;;;;;;;;25.39;44.33;96127.47;5072489;28;19928;-67
2021/06/27 10:17:46;;;;;;;;;;;;;;;25.56;43.93;96126.50;5072075;28;19920;-67
2021/06/27 10:20:12;;;;;;;;;;;;;;;25.73;43.64;96120.16;5072863;28;19920;-68
2021/06/27 10:22:38;;;;;;;;;;;;;;;25.09;44.17;96108.00;5072343;28;19974;-68
2021/06/27 10:25:06;;;;;;;;;;;;;;;25.63;44.00;96121.34;5072994;28;20019;-67
2021/06/27 10:27:33;;;;;;;;;;;;;;;25.54;42.91;96113.38;5072960;28;19932;-68
2021/06/27 10:30:00;;;;;;;;;;;;;;;25.69;42.57;96114.63;5072465;28;20356;-68
2021/06/27 10:32:25;;;;;;;;;;;;;;;25.85;42.03;96110.19;5054920;28;19920;-69
2021/06/27 10:34:54;;;;;;;;;;;;;;;26.15;42.18;96109.94;5072857;28;20326;-69
2021/06/27 10:37:21;;;;;;;;;;;;;;;26.18;41.30;96114.66;5072358;28;20341;-69
2021/06/27 10:39:56;;;;;;;;;;;;;;;25.80;40.23;96115.78;5072845;28;19921;-68
2021/06/27 10:42:45;;;;;;;;;;;;;;;25.74;40.92;96117.13;5073528;28;20003;-69
2021/06/27 10:45:13;;;;;;;;;;;;;;;26.01;40.74;96109.53;5072896;28;20272;-68
2021/06/27 10:47:38;;;;;;;;;;;;;;;25.92;41.35;96107.72;5055137;28;19921;-68
2021/06/27 10:50:04;;;;;;;;;;;;;;;26.02;40.66;96106.47;5072925;28;19927;-68
2021/06/27 10:52:48;;;;;;;;;;;;;;;26.27;40.08;96109.16;5076389;28;19943;-68
2021/06/27 10:55:18;;;;;;;;;;;;;;;26.54;39.18;96105.78;5079983;28;20019;-68
2021/06/27 10:57:58;;;;;;;;;;;;;;;26.37;39.69;96106.00;5078113;28;19921;-68
2021/06/27 11:00:26;;;;;;;;;;;;;;;26.69;40.18;96096.16;5074528;28;19920;-68
2021/06/27 11:02:51;;;;;;;;;;;;;;;26.07;41.66;96102.78;5077871;28;19927;-67
2021/06/27 11:05:40;;;;;;;;;;;;;;;25.90;42.32;96101.09;5076268;28;19924;-67
2021/06/27 11:08:06;;;;;;;;;;;;;;;26.07;41.77;96108.16;5077715;28;20045;-68
2021/06/27 11:10:32;;;;;;;;;;;;;;;26.18;40.43;96098.50;5077551;28;19921;-68
2021/06/27 11:13:24;;;;;;;;;;;;;;;25.74;41.96;96095.59;5077846;28;19920;-67
2021/06/27 11:16:04;;;;;;;;;;;;;;;26.10;41.34;96091.31;5057811;28;20373;-68
2021/06/27 11:18:31;;;;;;;;;;;;;;;25.91;41.61;96095.34;5076255;28;19921;-68
2021/06/27 11:21:10;;;;;;;;;;;;;;;26.09;41.42;96095.13;5075813;28;19977;-67
2021/06/27 11:23:51;;;;;;;;;;;;;;;26.48;40.10;96085.56;5076644;28;19921;-67
2021/06/27 11:26:31;;;;;;;;;;;;;;;26.77;39.61;96095.25;5075780;28;20012;-68
2021/06/27 11:28:56;;;;;;;;;;;;;;;26.94;38.84;96097.66;5074706;28;19959;-67
2021/06/27 11:31:24;;;;;;;;;;;;;;;26.82;39.74;96095.00;5075487;28;19924;-67
2021/06/27 11:34:04;;;;;;;;;;;;;;;26.75;39.82;96097.50;5075594;28;20018;-68
2021/06/27 11:36:32;;;;;;;;;;;;;;;27.21;38.80;96084.50;5074173;28;20433;-68
2021/06/27 11:39:00;;;;;;;;;;;;;;;27.17;39.79;96084.41;5075131;28;19920;-67
2021/06/27 11:41:37;;;;;;;;;;;;;;;27.15;39.65;96091.31;5075277;28;20027;-67
2021/06/27 11:44:06;;;;;;;;;;;;;;;26.93;39.30;96096.09;5075273;28;20018;-68
2021/06/27 11:46:34;;;;;;;;;;;;;;;26.93;39.79;96093.38;5074857;28;19924;-68
2021/06/27 11:49:02;;;;;;;;;;;;;;;26.70;38.45;96086.97;5075488;28;19974;-67
2021/06/27 11:51:35;;;;;;;;;;;;;;;26.94;37.25;96086.84;5074995;28;19950;-68
2021/06/27 11:54:00;;;;;;;;;;;;;;;27.04;36.90;96084.81;5056500;28;19924;-67
2021/06/27 11:56:26;;;;;;;;;;;;;;;26.98;37.46;96088.88;5074466;28;19921;-67
2021/06/27 11:59:06;;;;;;;;;;;;;;;27.07;37.56;96079.53;5074851;28;19965;-67
2021/06/27 12:01:34;;;;;;;;;;;;;;;26.88;37.43;96088.22;5077421;28;19920;-67
2021/06/27 12:04:01;;;;;;;;;;;;;;;26.77;37.49;96080.97;5074552;28;19928;-68
2021/06/27 12:06:33;;;;;;;;;;;;;;;26.88;37.45;96084.75;5056812;28;20011;-67
2021/06/27 12:08:59;;;;;;;;;;;;;;;27.18;37.56;96085.22;5075039;28;19974;-68
2021/06/27 12:11:24;;;;;;;;;;;;;;;27.72;36.65;96079.28;5075756;28;19920;-67
2021/06/27 12:13:54;;;;;;;;;;;;;;;27.83;36.13;96085.72;5075142;28;19952;-67
2021/06/27 12:16:22;;;;;;;;;;;;;;;27.68;37.22;96083.78;5075548;28;19927;-67
2021/06/27 12:18:47;;;;;;;;;;;;;;;28.07;35.75;96082.03;5057099;28;20368;-68
2021/06/27 12:21:14;;;;;;;;;;;;;;;27.55;36.65;96087.69;5074634;28;19920;-68
2021/06/27 12:23:41;;;;;;;;;;;;;;;27.81;36.25;96087.19;5074582;28;19920;-68
2021/06/27 12:26:07;;;;;;;;;;;;;;;27.45;35.82;96089.00;5056663;28;20299;-67
2021/06/27 12:28:36;;;;;;;;;;;;;;;27.63;36.47;96079.41;5074975;28;19924;-67
2021/06/27 12:31:07;;;;;;;;;;;;;;;27.61;35.28;96080.91;5056194;28;20059;-68
2021/06/27 12:33:34;;;;;;;;;;;;;;;27.73;34.66;96078.16;5074607;28;19924;-67
2021/06/27 12:36:01;;;;;;;;;;;;;;;27.80;34.35;96082.94;5074148;28;19927;-67
2021/06/27 12:38:28;;;;;;;;;;;;;;;27.96;35.56;96067.47;5073938;28;19924;-68
2021/06/27 12:40:55;;;;;;;;;;;;;;;27.51;35.16;96073.31;5074192;28;19927;-68
2021/06/27 12:43:21;;;;;;;;;;;;;;;27.45;34.41;96070.09;5074806;28;19920;-67
2021/06/27 12:45:46;;;;;;;;;;;;;;;27.41;35.38;96067.28;5073917;28;20360;-67
2021/06/27 12:48:12;;;;;;;;;;;;;;;27.56;35.84;96068.44;5073753;28;19960;-67